LIS weather

Humberto Delgado Airport (Lisbon Portela Airport)
Lisbon, Lisbon District, Portugal

Public forecast

Using degrees Celsius for public forecast. Weather courtesy of forecast.io.

Current aviation weather report (METAR) for Humberto Delgado Airport (Lisbon Portela Airport)

Retrieved 2019/11/14 18:30 UTC (0 seconds ago):

LPPT 141830Z 30010KT 250V330 9999 VCSH FEW018 FEW030CB 12/08 Q1012 RESHRA WS R03

Aviation forecast (TAF) for Humberto Delgado Airport (Lisbon Portela Airport)

Retrieved 2019/11/14 18:18 UTC (0 seconds ago):

TAF LPPT 141700Z 1418/1524 31012KT 9999 SCT018 SCT030 TEMPO 1418/1424 31018G30KT 5000 SHRA BKN015 FEW030CB PROB30 TEMPO 1418/1420 31023G35KT 3000 TSRAGS BKN012 SCT020CB PROB40 TEMPO 1500/1518 31017G27KT 8000 SHRA BKN018 FEW030TCU